sensor_id;sensor_type;location;lat;lon;timestamp;temperature;humidity
7814;DHT22;3952;48.364;16.022;2023-06-04T00:02:19;14.90;99.90
7814;DHT22;3952;48.364;16.022;2023-06-04T00:04:46;14.80;99.90
7814;DHT22;3952;48.364;16.022;2023-06-04T00:07:15;14.70;99.90
7814;DHT22;3952;48.364;16.022;2023-06-04T00:09:42;14.70;99.90
7814;DHT22;3952;48.364;16.022;2023-06-04T00:12:09;14.60;99.90
7814;DHT22;3952;48.364;16.022;2023-06-04T00:14:37;14.60;99.90
7814;DHT22;3952;48.364;16.022;2023-06-04T00:17:04;14.60;99.90
7814;DHT22;3952;48.364;16.022;2023-06-04T00:19:32;14.60;99.90
7814;DHT22;3952;48.364;16.022;2023-06-04T00:21:59;14.60;99.90
7814;DHT22;3952;48.364;16.022;2023-06-04T00:24:28;14.60;99.90
7814;DHT22;3952;48.364;16.022;2023-06-04T00:26:55;14.50;99.90
7814;DHT22;3952;48.364;16.022;2023-06-04T00:29:22;14.50;99.90
7814;DHT22;3952;48.364;16.022;2023-06-04T00:31:50;14.50;99.90
7814;DHT22;3952;48.364;16.022;2023-06-04T00:34:17;14.60;99.90
7814;DHT22;3952;48.364;16.022;2023-06-04T00:36:44;14.60;99.90
7814;DHT22;3952;48.364;16.022;2023-06-04T00:39:12;14.60;99.90
7814;DHT22;3952;48.364;16.022;2023-06-04T00:41:40;14.50;99.90
7814;DHT22;3952;48.364;16.022;2023-06-04T00:44:08;14.40;99.90
7814;DHT22;3952;48.364;16.022;2023-06-04T00:46:37;14.30;99.90
7814;DHT22;3952;48.364;16.022;2023-06-04T00:49:05;14.30;99.90
7814;DHT22;3952;48.364;16.022;2023-06-04T00:51:33;14.40;99.90
7814;DHT22;3952;48.364;16.022;2023-06-04T00:54:02;14.40;99.90
7814;DHT22;3952;48.364;16.022;2023-06-04T00:56:34;14.40;99.90
7814;DHT22;3952;48.364;16.022;2023-06-04T00:59:05;14.40;99.90
7814;DHT22;3952;48.364;16.022;2023-06-04T01:01:39;14.40;99.90
7814;DHT22;3952;48.364;16.022;2023-06-04T01:04:14;14.40;99.90
7814;DHT22;3952;48.364;16.022;2023-06-04T01:06:44;14.40;99.90
7814;DHT22;3952;48.364;16.022;2023-06-04T01:09:13;14.30;99.90
7814;DHT22;3952;48.364;16.022;2023-06-04T01:11:41;14.30;99.90
7814;DHT22;3952;48.364;16.022;2023-06-04T01:14:10;14.30;99.90
7814;DHT22;3952;48.364;16.022;2023-06-04T01:16:42;14.30;99.90
7814;DHT22;3952;48.364;16.022;2023-06-04T01:19:30;14.40;99.90
7814;DHT22;3952;48.364;16.022;2023-06-04T01:22:07;13.80;99.90
7814;DHT22;3952;48.364;16.022;2023-06-04T01:24:44;14.20;99.90
7814;DHT22;3952;48.364;16.022;2023-06-04T01:27:17;14.20;99.90
7814;DHT22;3952;48.364;16.022;2023-06-04T01:29:47;14.20;99.90
7814;DHT22;3952;48.364;16.022;2023-06-04T01:32:15;14.20;99.90
7814;DHT22;3952;48.364;16.022;2023-06-04T01:34:44;14.20;99.90
7814;DHT22;3952;48.364;16.022;2023-06-04T01:37:11;14.20;99.90
7814;DHT22;3952;48.364;16.022;2023-06-04T01:39:39;14.20;99.90
7814;DHT22;3952;48.364;16.022;2023-06-04T01:42:07;14.20;99.90
7814;DHT22;3952;48.364;16.022;2023-06-04T01:44:34;14.10;99.90
7814;DHT22;3952;48.364;16.022;2023-06-04T01:47:03;14.10;99.90
7814;DHT22;3952;48.364;16.022;2023-06-04T01:49:30;14.10;99.90
7814;DHT22;3952;48.364;16.022;2023-06-04T01:51:58;14.10;99.90
7814;DHT22;3952;48.364;16.022;2023-06-04T01:54:25;14.10;99.90
7814;DHT22;3952;48.364;16.022;2023-06-04T01:56:52;14.10;99.90
7814;DHT22;3952;48.364;16.022;2023-06-04T01:59:19;14.10;99.90
7814;DHT22;3952;48.364;16.022;2023-06-04T02:01:47;14.10;99.90
7814;DHT22;3952;48.364;16.022;2023-06-04T02:04:15;14.10;99.90
7814;DHT22;3952;48.364;16.022;2023-06-04T02:06:43;14.10;99.90
7814;DHT22;3952;48.364;16.022;2023-06-04T02:09:10;14.10;99.90
7814;DHT22;3952;48.364;16.022;2023-06-04T02:11:38;14.10;99.90
7814;DHT22;3952;48.364;16.022;2023-06-04T02:14:05;14.00;99.90
7814;DHT22;3952;48.364;16.022;2023-06-04T02:16:32;14.00;99.90
7814;DHT22;3952;48.364;16.022;2023-06-04T02:18:59;14.00;99.90
7814;DHT22;3952;48.364;16.022;2023-06-04T02:21:28;14.00;99.90
7814;DHT22;3952;48.364;16.022;2023-06-04T02:23:55;14.00;99.90
7814;DHT22;3952;48.364;16.022;2023-06-04T02:26:23;14.00;99.90
7814;DHT22;3952;48.364;16.022;2023-06-04T02:28:50;14.00;99.90
7814;DHT22;3952;48.364;16.022;2023-06-04T02:31:18;14.00;99.90
7814;DHT22;3952;48.364;16.022;2023-06-04T02:33:45;14.00;99.90
7814;DHT22;3952;48.364;16.022;2023-06-04T02:36:12;14.00;99.90
7814;DHT22;3952;48.364;16.022;2023-06-04T02:38:41;14.00;99.90
7814;DHT22;3952;48.364;16.022;2023-06-04T02:41:08;14.00;99.90
7814;DHT22;3952;48.364;16.022;2023-06-04T02:43:36;13.90;99.90
7814;DHT22;3952;48.364;16.022;2023-06-04T02:46:04;14.40;99.90
7814;DHT22;3952;48.364;16.022;2023-06-04T02:48:32;13.90;99.90
7814;DHT22;3952;48.364;16.022;2023-06-04T02:50:59;13.90;99.90
7814;DHT22;3952;48.364;16.022;2023-06-04T02:53:26;13.90;99.90
7814;DHT22;3952;48.364;16.022;2023-06-04T02:55:55;13.90;99.90
7814;DHT22;3952;48.364;16.022;2023-06-04T02:58:24;14.00;99.90
7814;DHT22;3952;48.364;16.022;2023-06-04T03:00:52;14.00;99.90
7814;DHT22;3952;48.364;16.022;2023-06-04T03:03:19;14.00;99.90
7814;DHT22;3952;48.364;16.022;2023-06-04T03:05:47;14.00;99.90
7814;DHT22;3952;48.364;16.022;2023-06-04T03:08:15;14.00;99.90
7814;DHT22;3952;48.364;16.022;2023-06-04T03:10:42;14.00;99.90
7814;DHT22;3952;48.364;16.022;2023-06-04T03:13:11;14.00;99.90
7814;DHT22;3952;48.364;16.022;2023-06-04T03:15:38;14.10;99.90
7814;DHT22;3952;48.364;16.022;2023-06-04T03:18:05;14.10;99.90
7814;DHT22;3952;48.364;16.022;2023-06-04T03:20:32;14.20;99.90
7814;DHT22;3952;48.364;16.022;2023-06-04T03:23:04;14.20;99.90
7814;DHT22;3952;48.364;16.022;2023-06-04T03:25:31;14.30;99.90
7814;DHT22;3952;48.364;16.022;2023-06-04T03:27:59;14.30;99.90
7814;DHT22;3952;48.364;16.022;2023-06-04T03:30:27;14.30;99.90
7814;DHT22;3952;48.364;16.022;2023-06-04T03:32:55;14.30;99.90
7814;DHT22;3952;48.364;16.022;2023-06-04T03:35:22;14.30;99.90
7814;DHT22;3952;48.364;16.022;2023-06-04T03:37:49;14.20;99.90
7814;DHT22;3952;48.364;16.022;2023-06-04T03:40:16;14.20;99.90
7814;DHT22;3952;48.364;16.022;2023-06-04T03:42:44;14.20;99.90
7814;DHT22;3952;48.364;16.022;2023-06-04T03:45:11;14.20;99.90
7814;DHT22;3952;48.364;16.022;2023-06-04T03:47:40;14.30;99.90
7814;DHT22;3952;48.364;16.022;2023-06-04T03:50:08;14.30;99.90
7814;DHT22;3952;48.364;16.022;2023-06-04T03:52:35;14.30;99.90
7814;DHT22;3952;48.364;16.022;2023-06-04T03:55:03;14.40;99.90
7814;DHT22;3952;48.364;16.022;2023-06-04T03:57:30;14.40;99.90
7814;DHT22;3952;48.364;16.022;2023-06-04T03:59:58;14.50;99.90
7814;DHT22;3952;48.364;16.022;2023-06-04T04:02:26;14.50;99.90
7814;DHT22;3952;48.364;16.022;2023-06-04T04:04:54;14.50;99.90
7814;DHT22;3952;48.364;16.022;2023-06-04T04:07:23;14.40;99.90
7814;DHT22;3952;48.364;16.022;2023-06-04T04:09:51;14.40;99.90
7814;DHT22;3952;48.364;16.022;2023-06-04T04:12:18;14.40;99.90
7814;DHT22;3952;48.364;16.022;2023-06-04T04:14:45;14.40;99.90
7814;DHT22;3952;48.364;16.022;2023-06-04T04:17:13;14.50;99.90
7814;DHT22;3952;48.364;16.022;2023-06-04T04:19:40;14.50;99.90
7814;DHT22;3952;48.364;16.022;2023-06-04T04:22:10;14.50;99.90
7814;DHT22;3952;48.364;16.022;2023-06-04T04:24:38;14.50;99.90
7814;DHT22;3952;48.364;16.022;2023-06-04T04:27:05;14.50;99.90
7814;DHT22;3952;48.364;16.022;2023-06-04T04:29:34;14.50;99.90
7814;DHT22;3952;48.364;16.022;2023-06-04T04:32:02;14.50;99.90
7814;DHT22;3952;48.364;16.022;2023-06-04T04:34:37;14.50;99.90
7814;DHT22;3952;48.364;16.022;2023-06-04T04:37:05;14.50;99.90
7814;DHT22;3952;48.364;16.022;2023-06-04T04:39:36;14.60;99.90
7814;DHT22;3952;48.364;16.022;2023-06-04T04:42:03;14.60;99.90
7814;DHT22;3952;48.364;16.022;2023-06-04T04:44:31;14.60;99.90
7814;DHT22;3952;48.364;16.022;2023-06-04T04:46:58;14.60;99.90
7814;DHT22;3952;48.364;16.022;2023-06-04T04:49:25;14.60;99.90
7814;DHT22;3952;48.364;16.022;2023-06-04T04:51:52;14.60;99.90
7814;DHT22;3952;48.364;16.022;2023-06-04T04:54:20;14.70;99.90
7814;DHT22;3952;48.364;16.022;2023-06-04T04:56:49;14.70;99.90
7814;DHT22;3952;48.364;16.022;2023-06-04T04:59:16;14.70;99.90
7814;DHT22;3952;48.364;16.022;2023-06-04T05:01:43;14.70;99.90
7814;DHT22;3952;48.364;16.022;2023-06-04T05:04:10;14.80;99.90
7814;DHT22;3952;48.364;16.022;2023-06-04T05:06:38;14.80;99.90
7814;DHT22;3952;48.364;16.022;2023-06-04T05:09:05;14.80;99.90
7814;DHT22;3952;48.364;16.022;2023-06-04T05:11:33;14.80;99.90
7814;DHT22;3952;48.364;16.022;2023-06-04T05:14:02;14.50;99.90
7814;DHT22;3952;48.364;16.022;2023-06-04T05:16:29;14.80;99.90
7814;DHT22;3952;48.364;16.022;2023-06-04T05:18:57;14.80;99.90
7814;DHT22;3952;48.364;16.022;2023-06-04T05:21:24;14.70;99.90
7814;DHT22;3952;48.364;16.022;2023-06-04T05:23:52;14.70;99.90
7814;DHT22;3952;48.364;16.022;2023-06-04T05:26:19;14.80;99.90
7814;DHT22;3952;48.364;16.022;2023-06-04T05:28:49;14.80;99.90
7814;DHT22;3952;48.364;16.022;2023-06-04T05:31:17;14.20;99.90
7814;DHT22;3952;48.364;16.022;2023-06-04T05:33:45;14.80;99.90
7814;DHT22;3952;48.364;16.022;2023-06-04T05:36:13;14.80;99.90
7814;DHT22;3952;48.364;16.022;2023-06-04T05:38:41;14.80;99.90
7814;DHT22;3952;48.364;16.022;2023-06-04T05:41:08;14.90;99.90
7814;DHT22;3952;48.364;16.022;2023-06-04T05:43:35;14.90;99.90
7814;DHT22;3952;48.364;16.022;2023-06-04T05:46:03;14.90;99.90
7814;DHT22;3952;48.364;16.022;2023-06-04T05:48:33;14.90;99.90
7814;DHT22;3952;48.364;16.022;2023-06-04T05:51:01;14.90;99.90
7814;DHT22;3952;48.364;16.022;2023-06-04T05:53:28;14.90;99.90
7814;DHT22;3952;48.364;16.022;2023-06-04T05:55:55;14.90;99.90
7814;DHT22;3952;48.364;16.022;2023-06-04T05:58:22;15.00;99.90
7814;DHT22;3952;48.364;16.022;2023-06-04T06:00:50;15.00;99.90
7814;DHT22;3952;48.364;16.022;2023-06-04T06:03:17;15.00;99.90
7814;DHT22;3952;48.364;16.022;2023-06-04T06:05:46;15.10;99.90
7814;DHT22;3952;48.364;16.022;2023-06-04T06:08:14;15.10;99.90
7814;DHT22;3952;48.364;16.022;2023-06-04T06:10:41;15.10;99.90
7814;DHT22;3952;48.364;16.022;2023-06-04T06:13:09;15.10;99.90
7814;DHT22;3952;48.364;16.022;2023-06-04T06:15:36;15.20;99.90
7814;DHT22;3952;48.364;16.022;2023-06-04T06:18:04;15.20;99.90
7814;DHT22;3952;48.364;16.022;2023-06-04T06:20:31;15.30;99.90
7814;DHT22;3952;48.364;16.022;2023-06-04T06:23:05;15.30;99.90
7814;DHT22;3952;48.364;16.022;2023-06-04T06:25:33;15.30;99.90
7814;DHT22;3952;48.364;16.022;2023-06-04T06:28:00;15.30;99.90
7814;DHT22;3952;48.364;16.022;2023-06-04T06:30:27;15.30;99.90
7814;DHT22;3952;48.364;16.022;2023-06-04T06:32:54;15.40;99.90
7814;DHT22;3952;48.364;16.022;2023-06-04T06:35:22;15.40;99.90
7814;DHT22;3952;48.364;16.022;2023-06-04T06:37:49;15.40;99.90
7814;DHT22;3952;48.364;16.022;2023-06-04T06:40:19;15.40;99.90
7814;DHT22;3952;48.364;16.022;2023-06-04T06:42:48;15.40;99.90
7814;DHT22;3952;48.364;16.022;2023-06-04T06:45:17;15.50;99.90
7814;DHT22;3952;48.364;16.022;2023-06-04T06:47:45;15.50;99.90
7814;DHT22;3952;48.364;16.022;2023-06-04T06:50:12;15.50;99.90
7814;DHT22;3952;48.364;16.022;2023-06-04T06:52:40;15.50;99.90
7814;DHT22;3952;48.364;16.022;2023-06-04T06:55:07;15.60;99.90
7814;DHT22;3952;48.364;16.022;2023-06-04T06:57:36;15.60;99.90
7814;DHT22;3952;48.364;16.022;2023-06-04T07:00:05;15.60;99.90
7814;DHT22;3952;48.364;16.022;2023-06-04T07:02:33;15.90;99.90
7814;DHT22;3952;48.364;16.022;2023-06-04T07:05:00;15.80;99.90
7814;DHT22;3952;48.364;16.022;2023-06-04T07:07:28;15.80;99.90
7814;DHT22;3952;48.364;16.022;2023-06-04T07:09:55;15.90;99.90
7814;DHT22;3952;48.364;16.022;2023-06-04T07:12:22;15.90;99.90
7814;DHT22;3952;48.364;16.022;2023-06-04T07:14:51;16.00;99.90
7814;DHT22;3952;48.364;16.022;2023-06-04T07:17:18;16.00;99.90
7814;DHT22;3952;48.364;16.022;2023-06-04T07:19:45;16.00;99.90
7814;DHT22;3952;48.364;16.022;2023-06-04T07:22:12;16.10;99.90
7814;DHT22;3952;48.364;16.022;2023-06-04T07:24:41;16.20;99.90
7814;DHT22;3952;48.364;16.022;2023-06-04T07:27:13;16.20;99.90
7814;DHT22;3952;48.364;16.022;2023-06-04T07:29:43;16.20;99.90
7814;DHT22;3952;48.364;16.022;2023-06-04T07:32:12;16.20;99.90
7814;DHT22;3952;48.364;16.022;2023-06-04T07:34:40;16.20;99.90
7814;DHT22;3952;48.364;16.022;2023-06-04T07:37:07;15.90;99.90
7814;DHT22;3952;48.364;16.022;2023-06-04T07:39:35;16.40;99.90
7814;DHT22;3952;48.364;16.022;2023-06-04T07:42:04;16.50;99.90
7814;DHT22;3952;48.364;16.022;2023-06-04T07:44:31;16.60;99.90
7814;DHT22;3952;48.364;16.022;2023-06-04T07:46:58;16.70;99.90
7814;DHT22;3952;48.364;16.022;2023-06-04T07:49:27;16.80;99.90
7814;DHT22;3952;48.364;16.022;2023-06-04T07:51:54;17.00;99.90
7814;DHT22;3952;48.364;16.022;2023-06-04T07:54:22;17.20;99.90
7814;DHT22;3952;48.364;16.022;2023-06-04T07:56:49;17.40;99.90
7814;DHT22;3952;48.364;16.022;2023-06-04T07:59:21;17.60;99.90
7814;DHT22;3952;48.364;16.022;2023-06-04T08:01:50;17.70;99.90
7814;DHT22;3952;48.364;16.022;2023-06-04T08:04:17;17.90;99.90
7814;DHT22;3952;48.364;16.022;2023-06-04T08:06:46;18.10;99.90
7814;DHT22;3952;48.364;16.022;2023-06-04T08:09:15;18.30;99.90
7814;DHT22;3952;48.364;16.022;2023-06-04T08:11:42;18.40;99.90
7814;DHT22;3952;48.364;16.022;2023-06-04T08:14:10;18.50;99.90
7814;DHT22;3952;48.364;16.022;2023-06-04T08:16:38;18.60;99.90
7814;DHT22;3952;48.364;16.022;2023-06-04T08:19:06;18.70;99.90
7814;DHT22;3952;48.364;16.022;2023-06-04T08:21:33;18.70;99.90
7814;DHT22;3952;48.364;16.022;2023-06-04T08:24:03;18.80;99.90
7814;DHT22;3952;48.364;16.022;2023-06-04T08:26:30;18.80;99.90
7814;DHT22;3952;48.364;16.022;2023-06-04T08:28:58;18.90;99.90
7814;DHT22;3952;48.364;16.022;2023-06-04T08:31:25;18.90;99.90
7814;DHT22;3952;48.364;16.022;2023-06-04T08:33:52;19.00;99.90
7814;DHT22;3952;48.364;16.022;2023-06-04T08:36:19;19.00;99.90
7814;DHT22;3952;48.364;16.022;2023-06-04T08:38:47;19.00;99.90
7814;DHT22;3952;48.364;16.022;2023-06-04T08:41:23;19.10;99.90
7814;DHT22;3952;48.364;16.022;2023-06-04T08:43:56;19.10;99.90
7814;DHT22;3952;48.364;16.022;2023-06-04T08:46:24;19.10;99.90
7814;DHT22;3952;48.364;16.022;2023-06-04T08:48:52;19.20;99.90
7814;DHT22;3952;48.364;16.022;2023-06-04T08:51:21;19.30;99.90
7814;DHT22;3952;48.364;16.022;2023-06-04T08:53:49;19.50;99.90
7814;DHT22;3952;48.364;16.022;2023-06-04T08:56:21;19.70;99.90
7814;DHT22;3952;48.364;16.022;2023-06-04T08:58:49;19.70;99.90
7814;DHT22;3952;48.364;16.022;2023-06-04T09:01:17;19.90;99.90
7814;DHT22;3952;48.364;16.022;2023-06-04T09:03:45;20.00;99.90
7814;DHT22;3952;48.364;16.022;2023-06-04T09:06:12;20.20;99.90
7814;DHT22;3952;48.364;16.022;2023-06-04T09:08:43;20.40;99.90
7814;DHT22;3952;48.364;16.022;2023-06-04T09:11:14;20.60;99.90
7814;DHT22;3952;48.364;16.022;2023-06-04T09:13:47;20.70;99.90
7814;DHT22;3952;48.364;16.022;2023-06-04T09:16:15;20.80;99.90
7814;DHT22;3952;48.364;16.022;2023-06-04T09:18:43;21.60;99.90
7814;DHT22;3952;48.364;16.022;2023-06-04T09:21:11;21.00;99.90
7814;DHT22;3952;48.364;16.022;2023-06-04T09:23:44;21.00;99.90
7814;DHT22;3952;48.364;16.022;2023-06-04T09:26:11;20.90;99.90
7814;DHT22;3952;48.364;16.022;2023-06-04T09:28:40;20.90;99.90
7814;DHT22;3952;48.364;16.022;2023-06-04T09:31:14;21.00;99.90
7814;DHT22;3952;48.364;16.022;2023-06-04T09:33:45;21.00;99.90
7814;DHT22;3952;48.364;16.022;2023-06-04T09:36:12;21.10;99.90
7814;DHT22;3952;48.364;16.022;2023-06-04T09:38:40;21.20;99.90
7814;DHT22;3952;48.364;16.022;2023-06-04T09:41:11;21.30;99.90
7814;DHT22;3952;48.364;16.022;2023-06-04T09:43:39;21.40;99.90
7814;DHT22;3952;48.364;16.022;2023-06-04T09:46:15;21.60;99.90
7814;DHT22;3952;48.364;16.022;2023-06-04T09:48:44;21.70;99.90
7814;DHT22;3952;48.364;16.022;2023-06-04T09:51:13;21.90;99.90
7814;DHT22;3952;48.364;16.022;2023-06-04T09:53:41;22.00;99.90
7814;DHT22;3952;48.364;16.022;2023-06-04T09:56:08;21.80;99.90
7814;DHT22;3952;48.364;16.022;2023-06-04T09:58:38;21.80;99.90
7814;DHT22;3952;48.364;16.022;2023-06-04T10:01:06;21.70;99.90
7814;DHT22;3952;48.364;16.022;2023-06-04T10:03:35;21.80;99.90
7814;DHT22;3952;48.364;16.022;2023-06-04T10:06:05;21.70;99.90
7814;DHT22;3952;48.364;16.022;2023-06-04T10:08:33;21.80;99.90
7814;DHT22;3952;48.364;16.022;2023-06-04T10:11:01;21.90;99.90
7814;DHT22;3952;48.364;16.022;2023-06-04T10:13:31;21.90;99.90
7814;DHT22;3952;48.364;16.022;2023-06-04T10:16:02;21.90;99.90
7814;DHT22;3952;48.364;16.022;2023-06-04T10:18:31;22.00;99.90
7814;DHT22;3952;48.364;16.022;2023-06-04T10:21:00;22.00;99.90
7814;DHT22;3952;48.364;16.022;2023-06-04T10:23:28;22.10;99.90
7814;DHT22;3952;48.364;16.022;2023-06-04T10:25:56;22.20;99.90
7814;DHT22;3952;48.364;16.022;2023-06-04T10:28:25;22.40;99.90
7814;DHT22;3952;48.364;16.022;2023-06-04T10:30:53;22.60;99.90
7814;DHT22;3952;48.364;16.022;2023-06-04T10:33:21;22.70;99.90
7814;DHT22;3952;48.364;16.022;2023-06-04T10:35:50;22.60;99.90
7814;DHT22;3952;48.364;16.022;2023-06-04T10:38:19;22.50;99.90
7814;DHT22;3952;48.364;16.022;2023-06-04T10:40:48;22.30;99.90
7814;DHT22;3952;48.364;16.022;2023-06-04T10:43:15;22.40;99.90
7814;DHT22;3952;48.364;16.022;2023-06-04T10:45:43;22.50;99.90
7814;DHT22;3952;48.364;16.022;2023-06-04T10:48:11;22.60;99.90
7814;DHT22;3952;48.364;16.022;2023-06-04T10:50:49;22.70;99.90
7814;DHT22;3952;48.364;16.022;2023-06-04T10:53:19;22.80;99.90
7814;DHT22;3952;48.364;16.022;2023-06-04T10:55:48;22.90;99.90
7814;DHT22;3952;48.364;16.022;2023-06-04T10:58:16;23.00;99.90
7814;DHT22;3952;48.364;16.022;2023-06-04T11:00:45;23.00;99.90
7814;DHT22;3952;48.364;16.022;2023-06-04T11:03:15;23.10;99.90
7814;DHT22;3952;48.364;16.022;2023-06-04T11:05:46;23.00;99.90
7814;DHT22;3952;48.364;16.022;2023-06-04T11:08:14;23.00;99.90
7814;DHT22;3952;48.364;16.022;2023-06-04T11:10:43;23.00;99.90
7814;DHT22;3952;48.364;16.022;2023-06-04T11:13:11;23.10;99.90
7814;DHT22;3952;48.364;16.022;2023-06-04T11:15:40;23.10;99.90
7814;DHT22;3952;48.364;16.022;2023-06-04T11:18:08;23.10;99.90
7814;DHT22;3952;48.364;16.022;2023-06-04T11:20:35;23.00;99.90
7814;DHT22;3952;48.364;16.022;2023-06-04T11:23:02;22.90;99.90
7814;DHT22;3952;48.364;16.022;2023-06-04T11:25:31;22.80;99.90
7814;DHT22;3952;48.364;16.022;2023-06-04T11:28:01;22.80;99.90
7814;DHT22;3952;48.364;16.022;2023-06-04T11:30:29;23.50;99.90
7814;DHT22;3952;48.364;16.022;2023-06-04T11:33:03;22.90;99.90
7814;DHT22;3952;48.364;16.022;2023-06-04T11:35:30;23.00;99.90
7814;DHT22;3952;48.364;16.022;2023-06-04T11:37:58;22.90;99.90
7814;DHT22;3952;48.364;16.022;2023-06-04T11:40:26;22.70;99.90
7814;DHT22;3952;48.364;16.022;2023-06-04T11:42:54;22.60;99.90
7814;DHT22;3952;48.364;16.022;2023-06-04T11:45:23;22.50;99.90
7814;DHT22;3952;48.364;16.022;2023-06-04T11:47:52;22.60;99.90
7814;DHT22;3952;48.364;16.022;2023-06-04T11:50:21;22.60;99.90
7814;DHT22;3952;48.364;16.022;2023-06-04T11:52:49;22.60;99.90
7814;DHT22;3952;48.364;16.022;2023-06-04T11:55:16;22.60;99.90
7814;DHT22;3952;48.364;16.022;2023-06-04T11:57:46;22.70;99.90
7814;DHT22;3952;48.364;16.022;2023-06-04T12:00:14;22.70;99.90
7814;DHT22;3952;48.364;16.022;2023-06-04T12:02:51;22.80;99.90
7814;DHT22;3952;48.364;16.022;2023-06-04T12:05:19;22.70;99.90
7814;DHT22;3952;48.364;16.022;2023-06-04T12:07:48;22.70;99.90
7814;DHT22;3952;48.364;16.022;2023-06-04T12:10:17;22.80;99.90
7814;DHT22;3952;48.364;16.022;2023-06-04T12:12:44;22.90;99.90
7814;DHT22;3952;48.364;16.022;2023-06-04T12:15:18;22.90;99.90
7814;DHT22;3952;48.364;16.022;2023-06-04T12:17:53;22.90;99.90
7814;DHT22;3952;48.364;16.022;2023-06-04T12:20:32;22.60;99.90
7814;DHT22;3952;48.364;16.022;2023-06-04T12:23:00;22.50;99.90
7814;DHT22;3952;48.364;16.022;2023-06-04T12:25:28;22.30;99.90
7814;DHT22;3952;48.364;16.022;2023-06-04T12:27:56;22.30;99.90
7814;DHT22;3952;48.364;16.022;2023-06-04T12:30:35;22.20;99.90
7814;DHT22;3952;48.364;16.022;2023-06-04T12:33:04;22.20;99.90
7814;DHT22;3952;48.364;16.022;2023-06-04T12:35:31;22.10;99.90
7814;DHT22;3952;48.364;16.022;2023-06-04T12:37:59;22.20;99.90
7814;DHT22;3952;48.364;16.022;2023-06-04T12:40:26;22.10;99.90
7814;DHT22;3952;48.364;16.022;2023-06-04T12:42:53;22.10;99.90
7814;DHT22;3952;48.364;16.022;2023-06-04T12:45:20;22.10;99.90
7814;DHT22;3952;48.364;16.022;2023-06-04T12:47:48;22.20;99.90
7814;DHT22;3952;48.364;16.022;2023-06-04T12:50:16;22.20;99.90
7814;DHT22;3952;48.364;16.022;2023-06-04T12:52:44;22.10;99.90
7814;DHT22;3952;48.364;16.022;2023-06-04T12:55:12;22.20;99.90
7814;DHT22;3952;48.364;16.022;2023-06-04T12:57:39;22.20;99.90
7814;DHT22;3952;48.364;16.022;2023-06-04T13:00:08;22.30;99.90
7814;DHT22;3952;48.364;16.022;2023-06-04T13:02:36;22.30;99.90
7814;DHT22;3952;48.364;16.022;2023-06-04T13:05:04;22.40;99.90
7814;DHT22;3952;48.364;16.022;2023-06-04T13:07:32;22.50;99.90
7814;DHT22;3952;48.364;16.022;2023-06-04T13:10:00;22.70;99.90
7814;DHT22;3952;48.364;16.022;2023-06-04T13:12:27;22.50;99.90
7814;DHT22;3952;48.364;16.022;2023-06-04T13:14:55;22.40;99.90
7814;DHT22;3952;48.364;16.022;2023-06-04T13:17:22;22.40;99.90
7814;DHT22;3952;48.364;16.022;2023-06-04T13:19:49;22.40;99.90
7814;DHT22;3952;48.364;16.022;2023-06-04T13:22:17;22.40;99.90
7814;DHT22;3952;48.364;16.022;2023-06-04T13:24:46;22.40;99.90
7814;DHT22;3952;48.364;16.022;2023-06-04T13:27:13;22.40;99.90
7814;DHT22;3952;48.364;16.022;2023-06-04T13:29:41;22.50;99.90
7814;DHT22;3952;48.364;16.022;2023-06-04T13:32:08;22.50;99.90
7814;DHT22;3952;48.364;16.022;2023-06-04T13:34:36;22.50;99.90
7814;DHT22;3952;48.364;16.022;2023-06-04T13:37:03;22.50;99.90
7814;DHT22;3952;48.364;16.022;2023-06-04T13:39:31;22.50;99.90
7814;DHT22;3952;48.364;16.022;2023-06-04T13:41:59;22.50;99.90
7814;DHT22;3952;48.364;16.022;2023-06-04T13:44:27;22.40;99.90
7814;DHT22;3952;48.364;16.022;2023-06-04T13:46:54;22.30;99.90
7814;DHT22;3952;48.364;16.022;2023-06-04T13:49:21;22.40;99.90
7814;DHT22;3952;48.364;16.022;2023-06-04T13:51:48;22.50;99.90
7814;DHT22;3952;48.364;16.022;2023-06-04T13:54:16;22.60;99.90
7814;DHT22;3952;48.364;16.022;2023-06-04T13:56:44;22.70;99.90
7814;DHT22;3952;48.364;16.022;2023-06-04T13:59:12;22.70;99.90
7814;DHT22;3952;48.364;16.022;2023-06-04T14:01:40;22.80;99.90
7814;DHT22;3952;48.364;16.022;2023-06-04T14:04:07;22.60;99.90
7814;DHT22;3952;48.364;16.022;2023-06-04T14:06:36;22.50;99.90
7814;DHT22;3952;48.364;16.022;2023-06-04T14:09:04;22.40;99.90
7814;DHT22;3952;48.364;16.022;2023-06-04T14:11:32;22.30;99.90
7814;DHT22;3952;48.364;16.022;2023-06-04T14:14:00;22.30;99.90
7814;DHT22;3952;48.364;16.022;2023-06-04T14:16:28;22.20;99.90
7814;DHT22;3952;48.364;16.022;2023-06-04T14:18:56;22.20;99.90
7814;DHT22;3952;48.364;16.022;2023-06-04T14:21:23;22.20;99.90
7814;DHT22;3952;48.364;16.022;2023-06-04T14:23:50;22.30;99.90
7814;DHT22;3952;48.364;16.022;2023-06-04T14:26:18;22.20;99.90
7814;DHT22;3952;48.364;16.022;2023-06-04T14:28:46;22.20;99.90
7814;DHT22;3952;48.364;16.022;2023-06-04T14:31:13;22.20;99.90
7814;DHT22;3952;48.364;16.022;2023-06-04T14:33:42;22.20;99.90
7814;DHT22;3952;48.364;16.022;2023-06-04T14:36:09;22.10;99.90
7814;DHT22;3952;48.364;16.022;2023-06-04T14:38:36;22.10;99.90
7814;DHT22;3952;48.364;16.022;2023-06-04T14:41:04;22.20;99.90
7814;DHT22;3952;48.364;16.022;2023-06-04T14:43:31;22.20;99.90
7814;DHT22;3952;48.364;16.022;2023-06-04T14:45:59;21.60;99.90
7814;DHT22;3952;48.364;16.022;2023-06-04T14:48:26;22.10;99.90
7814;DHT22;3952;48.364;16.022;2023-06-04T14:50:55;22.10;99.90
7814;DHT22;3952;48.364;16.022;2023-06-04T14:53:23;22.10;99.90
7814;DHT22;3952;48.364;16.022;2023-06-04T14:55:50;22.10;99.90
7814;DHT22;3952;48.364;16.022;2023-06-04T14:58:18;22.10;99.90
7814;DHT22;3952;48.364;16.022;2023-06-04T15:00:46;22.10;99.90
7814;DHT22;3952;48.364;16.022;2023-06-04T15:03:13;22.00;99.90
7814;DHT22;3952;48.364;16.022;2023-06-04T15:05:40;21.90;99.90
7814;DHT22;3952;48.364;16.022;2023-06-04T15:08:09;22.00;99.90
7814;DHT22;3952;48.364;16.022;2023-06-04T15:10:36;22.10;99.90
7814;DHT22;3952;48.364;16.022;2023-06-04T15:13:03;22.10;99.90
7814;DHT22;3952;48.364;16.022;2023-06-04T15:15:31;22.10;99.90
7814;DHT22;3952;48.364;16.022;2023-06-04T15:17:58;21.90;99.90
7814;DHT22;3952;48.364;16.022;2023-06-04T15:20:26;21.80;99.90
7814;DHT22;3952;48.364;16.022;2023-06-04T15:22:54;21.90;99.90
7814;DHT22;3952;48.364;16.022;2023-06-04T15:25:23;21.90;99.90
7814;DHT22;3952;48.364;16.022;2023-06-04T15:27:51;21.70;99.90
7814;DHT22;3952;48.364;16.022;2023-06-04T15:30:18;21.60;99.90
7814;DHT22;3952;48.364;16.022;2023-06-04T15:32:46;21.50;99.90
7814;DHT22;3952;48.364;16.022;2023-06-04T15:35:13;21.50;99.90
7814;DHT22;3952;48.364;16.022;2023-06-04T15:37:41;21.40;99.90
7814;DHT22;3952;48.364;16.022;2023-06-04T15:40:08;21.30;99.90
7814;DHT22;3952;48.364;16.022;2023-06-04T15:42:38;21.30;99.90
7814;DHT22;3952;48.364;16.022;2023-06-04T15:45:06;21.30;99.90
7814;DHT22;3952;48.364;16.022;2023-06-04T15:47:34;21.20;99.90
7814;DHT22;3952;48.364;16.022;2023-06-04T15:50:01;21.20;99.90
7814;DHT22;3952;48.364;16.022;2023-06-04T15:52:28;21.30;99.90